Big G Airport


Codes: 0FD0/
Name: Big G Airport
City: Ormond Beach
Country: United States
Elevation: 40 ft.

Photos at Big G Airport


   Photos courtesy of SpottingLog. You can add your own sightings and photos by signing up for a free trial today.



No photos found.

Weather at Big G Airport


Time (UTC)DescriptionTempratureWindCloud coverageVisibilityPressureHumidity
15-Apr-2024 18:00Clear Sky27°C7 mph, E6%10000m1020hPa40%
15-Apr-2024 21:00Clear Sky27°C9 mph, E2%10000m1020hPa37%
16-Apr-2024 00:00Clear Sky21°C7 mph, SE1%10000m1019hPa61%
16-Apr-2024 03:00Clear Sky18°C4 mph, S1%10000m1020hPa76%
16-Apr-2024 06:00Clear Sky17°C4 mph, S1%10000m1020hPa79%
16-Apr-2024 09:00Clear Sky16°C2 mph, S6%10000m1020hPa82%
16-Apr-2024 12:00Few Clouds18°C2 mph, SE14%10000m1021hPa75%
16-Apr-2024 15:00Scattered Clouds26°C7 mph, SE46%10000m1022hPa44%
16-Apr-2024 18:00Broken Clouds28°C11 mph, E56%10000m1020hPa33%
16-Apr-2024 21:00Scattered Clouds27°C11 mph, E49%10000m1019hPa37%
17-Apr-2024 00:00Broken Clouds21°C7 mph, SE67%10000m1020hPa67%
17-Apr-2024 03:00Overcast Clouds18°C4 mph, SE99%10000m1021hPa83%
17-Apr-2024 06:00Overcast Clouds17°C2 mph, SE87%10000m1020hPa90%
17-Apr-2024 09:00Overcast Clouds18°C4 mph, SE100%10000m1020hPa88%
17-Apr-2024 12:00Broken Clouds19°C2 mph, SE78%10000m1021hPa83%
17-Apr-2024 15:00Few Clouds27°C7 mph, SE11%10000m1021hPa44%
17-Apr-2024 18:00Scattered Clouds30°C11 mph, E41%10000m1019hPa33%
17-Apr-2024 21:00Broken Clouds28°C11 mph, E53%10000m1017hPa42%
18-Apr-2024 00:00Broken Clouds22°C9 mph, SE67%10000m1018hPa67%
18-Apr-2024 03:00Broken Clouds19°C4 mph, S61%10000m1020hPa79%
18-Apr-2024 06:00Broken Clouds19°C7 mph, S80%10000m1018hPa79%
18-Apr-2024 09:00Overcast Clouds19°C2 mph, SW100%10000m1018hPa83%
18-Apr-2024 12:00Overcast Clouds19°C2 mph, S99%10000m1019hPa79%
18-Apr-2024 15:00Broken Clouds28°C2 mph, S51%10000m1019hPa46%
18-Apr-2024 18:00Scattered Clouds33°C4 mph, SE46%10000m1017hPa32%
18-Apr-2024 21:00Broken Clouds29°C11 mph, E61%10000m1015hPa44%
19-Apr-2024 00:00Broken Clouds23°C7 mph, SE54%10000m1017hPa58%
19-Apr-2024 03:00Scattered Clouds21°C4 mph, S48%10000m1018hPa66%
19-Apr-2024 06:00Broken Clouds20°C4 mph, SW71%10000m1016hPa69%
19-Apr-2024 09:00Broken Clouds18°C4 mph, W80%10000m1017hPa68%
19-Apr-2024 12:00Broken Clouds20°C2 mph, SW64%10000m1017hPa61%
19-Apr-2024 15:00Scattered Clouds28°C4 mph, SW50%10000m1018hPa37%
19-Apr-2024 18:00Scattered Clouds34°C4 mph, SW36%10000m1015hPa26%
19-Apr-2024 21:00Broken Clouds29°C9 mph, NE64%10000m1015hPa40%
20-Apr-2024 00:00Scattered Clouds23°C4 mph, SE40%10000m1015hPa66%
20-Apr-2024 03:00Few Clouds22°C4 mph, SW11%10000m1017hPa74%
20-Apr-2024 06:00Scattered Clouds20°C4 mph, W44%10000m1016hPa68%
20-Apr-2024 09:00Overcast Clouds19°C4 mph, W100%10000m1016hPa72%
20-Apr-2024 12:00Overcast Clouds21°C2 mph, W100%10000m1016hPa69%
20-Apr-2024 15:00Overcast Clouds29°C4 mph, W99%10000m1017hPa38%